Time;durP1;ratioP1;P1;durP2;ratioP2;P2;SDS_P1;SDS_P2;PMS_P1;PMS_P2;Temp;Humidity;BMP_temperature;BMP_pressure;BME280_temperature;BME280_humidity;BME280_pressure;Samples;Min_cycle;Max_cycle;Signal;HPM_P1;HPM_P2
2021/05/02 00:01:33;;;;;;;57.70;2.85;;;7.10;99.90;;;;;;5093223;28;20317;-73
2021/05/02 00:04:01;;;;;;;58.67;2.78;;;7.10;99.90;;;;;;5092140;28;20296;-72
2021/05/02 00:06:27;;;;;;;58.38;3.40;;;7.10;99.90;;;;;;5092221;28;20235;-72
2021/05/02 00:08:54;;;;;;;59.15;4.97;;;7.10;99.90;;;;;;5092245;28;20296;-72
2021/05/02 00:11:20;;;;;;;58.08;2.70;;;7.00;99.90;;;;;;5092525;28;20316;-72
2021/05/02 00:13:47;;;;;;;57.90;3.40;;;7.00;99.90;;;;;;5091500;28;20212;-72
2021/05/02 00:16:13;;;;;;;58.13;3.75;;;7.00;99.90;;;;;;5092192;28;20208;-72
2021/05/02 00:18:41;;;;;;;58.10;3.65;;;7.00;99.90;;;;;;5091978;28;20333;-72
2021/05/02 00:21:11;;;;;;;59.20;5.60;;;7.00;99.90;;;;;;5092107;28;20717;-72
2021/05/02 00:23:39;;;;;;;57.78;3.55;;;7.00;99.90;;;;;;5091430;28;20295;-71
2021/05/02 00:26:07;;;;;;;58.90;4.47;;;7.00;99.90;;;;;;5091808;28;20682;-72
2021/05/02 00:28:35;;;;;;;58.38;4.15;;;7.00;99.90;;;;;;5092411;28;20644;-72
2021/05/02 00:31:05;;;;;;;57.80;3.42;;;7.00;99.90;;;;;;5091920;28;20749;-72
2021/05/02 00:33:32;;;;;;;59.25;4.45;;;7.00;99.90;;;;;;5091532;28;20309;-72
2021/05/02 00:36:00;;;;;;;58.97;4.35;;;7.00;99.90;;;;;;5091700;28;20682;-72
2021/05/02 00:38:27;;;;;;;58.72;4.70;;;7.00;99.90;;;;;;5092042;28;20204;-72
2021/05/02 00:40:56;;;;;;;57.40;3.08;;;7.00;99.90;;;;;;5091848;28;20725;-72
2021/05/02 00:43:35;;;;;;;61.20;4.57;;;7.00;99.90;;;;;;5091775;28;20200;-72
2021/05/02 00:46:06;;;;;;;57.88;2.60;;;7.00;99.90;;;;;;5092219;28;20296;-72
2021/05/02 00:48:42;;;;;;;58.17;3.45;;;7.00;99.90;;;;;;5092191;28;20771;-73
2021/05/02 00:51:14;;;;;;;58.08;3.70;;;7.00;99.90;;;;;;5091489;28;20233;-72
2021/05/02 00:53:46;;;;;;;60.45;3.88;;;6.90;99.90;;;;;;5091311;28;20769;-72
2021/05/02 00:56:21;;;;;;;59.63;4.68;;;6.90;99.90;;;;;;5091973;28;20637;-72
2021/05/02 00:58:54;;;;;;;57.28;2.65;;;6.90;99.90;;;;;;5093116;28;20235;-72
2021/05/02 01:01:22;;;;;;;57.72;3.17;;;6.90;99.90;;;;;;5095773;28;20625;-72
2021/05/02 01:03:50;;;;;;;57.78;2.80;;;6.80;99.90;;;;;;5095296;28;20216;-72
2021/05/02 01:06:23;;;;;;;57.65;3.17;;;6.80;99.90;;;;;;5095983;28;20309;-73
2021/05/02 01:08:51;;;;;;;57.90;3.20;;;6.70;99.90;;;;;;5095687;28;20812;-72
2021/05/02 01:11:18;;;;;;;58.53;3.55;;;6.70;99.90;;;;;;5095439;28;20520;-72
2021/05/02 01:13:51;;;;;;;57.30;3.00;;;6.60;99.90;;;;;;5095175;28;20232;-72
2021/05/02 01:16:20;;;;;;;58.60;4.00;;;6.60;99.90;;;;;;5095286;28;20223;-72
2021/05/02 01:18:48;;;;;;;58.35;4.50;;;6.60;99.90;;;;;;5095719;28;20267;-72
2021/05/02 01:21:17;;;;;;;59.50;3.90;;;6.50;99.90;;;;;;5095562;28;20228;-72
2021/05/02 01:23:44;;;;;;;57.53;3.05;;;6.60;99.90;;;;;;5094744;28;20291;-72
2021/05/02 01:26:13;;;;;;;57.60;2.85;;;6.60;99.90;;;;;;5095234;28;20296;-72
2021/05/02 01:28:41;;;;;;;59.67;3.95;;;6.50;99.90;;;;;;5095348;28;20233;-72
2021/05/02 01:31:08;;;;;;;59.55;4.15;;;6.60;99.90;;;;;;5095130;28;20319;-72
2021/05/02 01:33:35;;;;;;;57.58;2.72;;;6.60;99.90;;;;;;5094834;28;20249;-72
2021/05/02 01:36:02;;;;;;;57.47;2.75;;;6.50;99.90;;;;;;5095134;28;20305;-72
2021/05/02 01:38:30;;;;;;;58.00;3.60;;;6.50;99.90;;;;;;5095304;28;20200;-72
2021/05/02 01:40:58;;;;;;;57.78;3.03;;;6.50;99.90;;;;;;5095183;28;20225;-72
2021/05/02 01:43:25;;;;;;;57.80;3.50;;;6.50;99.90;;;;;;5094430;28;20309;-72
2021/05/02 01:45:52;;;;;;;57.70;3.38;;;6.50;99.90;;;;;;5095190;28;20212;-72
2021/05/02 01:48:21;;;;;;;59.45;3.95;;;6.50;99.90;;;;;;5094949;28;20225;-72
2021/05/02 01:50:51;;;;;;;60.67;4.88;;;6.50;99.90;;;;;;5094482;28;20323;-72
2021/05/02 01:53:19;;;;;;;57.40;2.80;;;6.50;99.90;;;;;;5093324;28;20211;-72
2021/05/02 01:55:47;;;;;;;57.42;2.80;;;6.50;99.90;;;;;;5093379;28;20295;-72
2021/05/02 01:58:15;;;;;;;57.40;3.03;;;6.50;99.90;;;;;;5093674;28;20200;-72
2021/05/02 02:00:45;;;;;;;58.60;3.60;;;6.50;99.90;;;;;;5093662;28;20315;-71
2021/05/02 02:03:13;;;;;;;59.25;3.88;;;6.40;99.90;;;;;;5093420;28;20209;-71
2021/05/02 02:05:40;;;;;;;57.95;3.55;;;6.40;99.90;;;;;;5093123;28;20295;-71
2021/05/02 02:08:08;;;;;;;57.83;3.17;;;6.40;99.90;;;;;;5093253;28;20236;-72
2021/05/02 02:10:35;;;;;;;58.85;3.75;;;6.40;99.90;;;;;;5092828;28;20243;-72
2021/05/02 02:13:03;;;;;;;57.70;3.25;;;6.40;99.90;;;;;;5093424;28;20210;-72
2021/05/02 02:15:31;;;;;;;57.65;3.30;;;6.40;99.90;;;;;;5093181;28;20297;-72
2021/05/02 02:17:58;;;;;;;57.42;3.35;;;6.40;99.90;;;;;;5093785;28;20291;-72
2021/05/02 02:20:26;;;;;;;57.28;2.80;;;6.40;99.90;;;;;;5093245;28;20319;-72
2021/05/02 02:22:57;;;;;;;58.40;3.22;;;6.40;99.90;;;;;;5093062;28;20291;-72
2021/05/02 02:25:28;;;;;;;58.55;3.90;;;6.40;99.90;;;;;;5093086;28;20299;-72
2021/05/02 02:27:56;;;;;;;57.65;2.90;;;6.40;99.90;;;;;;5093177;28;20256;-72
2021/05/02 02:30:25;;;;;;;57.53;2.75;;;6.40;99.90;;;;;;5093332;28;20221;-72
2021/05/02 02:32:53;;;;;;;57.30;2.40;;;6.40;99.90;;;;;;5092707;28;20291;-72
2021/05/02 02:35:21;;;;;;;58.35;4.68;;;6.40;99.90;;;;;;5092574;28;20299;-73
2021/05/02 02:37:54;;;;;;;57.20;2.58;;;6.30;99.90;;;;;;5092687;28;20341;-72
2021/05/02 02:40:21;;;;;;;58.00;4.10;;;6.30;99.90;;;;;;5093131;28;20229;-72
2021/05/02 02:42:49;;;;;;;57.20;2.50;;;6.30;99.90;;;;;;5092534;28;20212;-72
2021/05/02 02:45:16;;;;;;;57.70;3.75;;;6.40;99.90;;;;;;5092564;28;20223;-71
2021/05/02 02:47:46;;;;;;;59.45;5.90;;;6.40;99.90;;;;;;5092640;28;20311;-72
2021/05/02 02:52:55;;;;;;;58.28;5.38;;;6.40;99.90;;;;;;5109285;27;20545;-71
2021/05/02 02:55:23;;;;;;;57.97;3.70;;;6.40;99.90;;;;;;5109433;28;20302;-71
2021/05/02 02:57:57;;;;;;;58.08;3.38;;;6.40;99.90;;;;;;5109778;28;20243;-71
2021/05/02 03:00:25;;;;;;;61.17;5.15;;;6.40;99.90;;;;;;5109461;28;20228;-71
2021/05/02 03:02:55;;;;;;;58.22;4.32;;;6.40;99.90;;;;;;5109235;28;20642;-72
2021/05/02 03:05:24;;;;;;;58.63;3.55;;;6.40;99.90;;;;;;5109206;28;20743;-71
2021/05/02 03:07:52;;;;;;;57.67;2.65;;;6.40;99.90;;;;;;5109781;28;20635;-72
2021/05/02 03:10:20;;;;;;;57.85;3.45;;;6.40;99.90;;;;;;5108993;28;20253;-72
2021/05/02 03:12:49;;;;;;;57.95;4.30;;;6.40;99.90;;;;;;5108636;28;20712;-72
2021/05/02 03:15:16;;;;;;;58.47;3.85;;;6.40;99.90;;;;;;5109331;28;20211;-71
2021/05/02 03:17:47;;;;;;;59.13;4.15;;;6.40;99.90;;;;;;5109310;28;20207;-72
2021/05/02 03:20:15;;;;;;;57.30;2.70;;;6.40;99.90;;;;;;5109006;28;20319;-71
2021/05/02 03:22:45;;;;;;;58.42;3.13;;;6.40;99.90;;;;;;5108670;28;20209;-72
2021/05/02 03:25:13;;;;;;;57.60;3.35;;;6.40;99.90;;;;;;5108873;28;20687;-72
2021/05/02 03:27:47;;;;;;;57.28;2.55;;;6.40;99.90;;;;;;5108978;28;20227;-72
2021/05/02 03:30:15;;;;;;;59.25;4.45;;;6.40;99.90;;;;;;5108978;28;20570;-72
2021/05/02 03:32:47;;;;;;;57.67;3.45;;;6.40;99.90;;;;;;5108575;28;20227;-71
2021/05/02 03:35:15;;;;;;;57.30;2.85;;;6.40;99.90;;;;;;5108873;28;20613;-71
2021/05/02 03:37:49;;;;;;;57.40;2.85;;;6.30;99.90;;;;;;5108823;28;20203;-71
2021/05/02 03:40:17;;;;;;;58.38;4.15;;;6.30;99.90;;;;;;5108739;28;20237;-71
2021/05/02 03:42:44;;;;;;;57.53;2.85;;;6.30;99.90;;;;;;5108398;28;20684;-71
2021/05/02 03:45:11;;;;;;;61.20;6.05;;;6.30;99.90;;;;;;5108476;28;20235;-71
2021/05/02 03:47:37;;;;;;;57.78;3.17;;;6.30;99.90;;;;;;5109117;28;20739;-71
2021/05/02 03:50:05;;;;;;;58.60;3.63;;;6.30;99.90;;;;;;5108402;28;20224;-71
2021/05/02 03:52:32;;;;;;;59.33;3.10;;;6.30;99.90;;;;;;5108011;28;20315;-71
2021/05/02 03:54:58;;;;;;;58.15;3.88;;;6.30;99.90;;;;;;5108515;28;20291;-71
2021/05/02 03:57:24;;;;;;;57.65;3.75;;;6.30;99.90;;;;;;5108581;28;20239;-71
2021/05/02 03:59:52;;;;;;;57.88;3.50;;;6.30;99.90;;;;;;5108153;28;20728;-71
2021/05/02 04:02:18;;;;;;;57.25;2.45;;;6.30;99.90;;;;;;5105700;28;20568;-71
2021/05/02 04:04:45;;;;;;;58.33;3.35;;;6.30;99.90;;;;;;5094342;28;20625;-71
2021/05/02 04:07:14;;;;;;;58.67;4.38;;;6.30;99.90;;;;;;5094695;28;20205;-71
2021/05/02 04:09:41;;;;;;;57.47;3.00;;;6.30;99.90;;;;;;5094664;28;20254;-71
2021/05/02 04:12:09;;;;;;;57.40;3.25;;;6.30;99.90;;;;;;5094444;28;20336;-71
2021/05/02 04:14:35;;;;;;;57.45;3.08;;;6.30;99.90;;;;;;5094321;28;20208;-71
2021/05/02 04:17:05;;;;;;;59.85;3.58;;;6.40;99.90;;;;;;5094581;28;20206;-71
2021/05/02 04:19:33;;;;;;;58.15;2.83;;;6.40;99.90;;;;;;5094329;28;20200;-71
2021/05/02 04:21:59;;;;;;;58.08;4.30;;;6.40;99.90;;;;;;5094252;28;20201;-71
2021/05/02 04:24:26;;;;;;;57.35;2.78;;;6.40;99.90;;;;;;5094275;28;20635;-71
2021/05/02 04:26:54;;;;;;;57.28;2.78;;;6.40;99.90;;;;;;5094216;28;20240;-71
2021/05/02 04:29:21;;;;;;;59.53;4.47;;;6.40;99.90;;;;;;5094420;28;20244;-71
2021/05/02 04:31:47;;;;;;;57.35;2.90;;;6.40;99.90;;;;;;5094153;28;20312;-71
2021/05/02 04:34:14;;;;;;;57.30;3.13;;;6.50;99.90;;;;;;5094087;28;20295;-71
2021/05/02 04:36:40;;;;;;;58.65;4.65;;;6.50;99.90;;;;;;5094045;28;20232;-71
2021/05/02 04:39:07;;;;;;;58.50;4.35;;;6.50;99.90;;;;;;5094194;28;20236;-71
2021/05/02 04:41:33;;;;;;;57.42;2.90;;;6.50;99.90;;;;;;5094128;28;20279;-71
2021/05/02 04:44:00;;;;;;;57.47;3.55;;;6.50;99.90;;;;;;5093578;28;20327;-71
2021/05/02 04:46:26;;;;;;;57.17;3.15;;;6.50;99.90;;;;;;5094097;28;20768;-71
2021/05/02 04:48:53;;;;;;;57.50;2.72;;;6.50;99.90;;;;;;5093723;28;20618;-71
2021/05/02 04:51:21;;;;;;;58.63;3.63;;;6.60;99.90;;;;;;5093637;28;20325;-71
2021/05/02 04:53:49;;;;;;;57.30;2.60;;;6.60;99.90;;;;;;5093550;28;20205;-71
2021/05/02 04:56:15;;;;;;;58.28;3.40;;;6.60;99.90;;;;;;5094189;28;20295;-71
2021/05/02 04:58:42;;;;;;;59.25;2.80;;;6.70;99.90;;;;;;5093718;28;20685;-71
2021/05/02 05:01:09;;;;;;;58.40;2.92;;;6.70;99.90;;;;;;5093434;28;20307;-71
2021/05/02 05:03:36;;;;;;;57.53;3.10;;;6.70;99.90;;;;;;5093134;28;20208;-71
2021/05/02 05:06:03;;;;;;;58.55;3.90;;;6.70;99.90;;;;;;5093713;28;20684;-71
2021/05/02 05:08:30;;;;;;;58.08;3.47;;;6.80;99.90;;;;;;5093428;28;20206;-71
2021/05/02 05:10:56;;;;;;;57.80;3.00;;;6.80;99.90;;;;;;5093148;28;20229;-72
2021/05/02 05:13:23;;;;;;;58.10;3.55;;;6.90;99.90;;;;;;5093172;28;20565;-71
2021/05/02 05:15:49;;;;;;;58.30;3.40;;;6.90;99.90;;;;;;5091966;28;20236;-71
2021/05/02 05:18:16;;;;;;;57.95;3.58;;;7.00;99.90;;;;;;5093415;28;20292;-72
2021/05/02 05:20:42;;;;;;;57.40;2.85;;;7.10;99.90;;;;;;5093385;28;20339;-71
2021/05/02 05:23:08;;;;;;;59.08;3.63;;;7.10;99.90;;;;;;5093066;28;20360;-71
2021/05/02 05:25:36;;;;;;;59.00;4.70;;;7.20;99.90;;;;;;5092912;28;20276;-71
2021/05/02 05:28:02;;;;;;;58.45;3.90;;;7.20;99.90;;;;;;5093174;28;20255;-71
2021/05/02 05:30:28;;;;;;;58.60;3.83;;;7.30;99.90;;;;;;5093126;28;20670;-71
2021/05/02 05:33:01;;;;;;;57.80;2.85;;;7.30;99.90;;;;;;5092788;28;20253;-71
2021/05/02 05:35:27;;;;;;;61.50;4.43;;;7.30;99.90;;;;;;5092790;28;20221;-71
2021/05/02 05:37:54;;;;;;;58.33;3.53;;;7.20;99.90;;;;;;5092978;28;20244;-71
2021/05/02 05:40:20;;;;;;;58.40;4.68;;;7.30;99.90;;;;;;5093000;28;20494;-71
2021/05/02 05:42:47;;;;;;;58.95;3.38;;;7.30;99.90;;;;;;5092412;28;20241;-72
2021/05/02 05:45:18;;;;;;;58.60;3.57;;;7.30;99.90;;;;;;5092734;28;20246;-72
2021/05/02 05:47:44;;;;;;;59.35;3.58;;;7.30;99.90;;;;;;5092914;28;20533;-72
2021/05/02 05:50:13;;;;;;;58.00;3.40;;;7.30;99.90;;;;;;5092917;28;20247;-71
2021/05/02 05:52:40;;;;;;;57.88;3.50;;;7.40;99.90;;;;;;5092185;28;20229;-72
2021/05/02 05:55:07;;;;;;;58.95;4.25;;;7.50;99.90;;;;;;5092378;28;20231;-72
2021/05/02 05:57:33;;;;;;;58.50;3.60;;;7.50;99.90;;;;;;5092471;28;20209;-72
2021/05/02 06:00:01;;;;;;;61.25;3.83;;;7.50;99.90;;;;;;5092719;28;20517;-72
2021/05/02 06:02:27;;;;;;;57.80;3.13;;;7.50;99.90;;;;;;5092321;28;20292;-72
2021/05/02 06:04:53;;;;;;;60.22;4.22;;;7.50;99.90;;;;;;5092254;28;20244;-72
2021/05/02 06:07:20;;;;;;;58.95;3.78;;;7.50;99.90;;;;;;5092490;28;20291;-72
2021/05/02 06:09:46;;;;;;;60.45;3.70;;;7.60;99.90;;;;;;5092268;28;20222;-72
2021/05/02 06:12:12;;;;;;;57.95;3.10;;;7.60;99.90;;;;;;5092143;28;20316;-72
2021/05/02 06:14:39;;;;;;;58.70;4.17;;;7.70;99.90;;;;;;5092304;28;20676;-72
2021/05/02 06:17:07;;;;;;;58.93;5.57;;;7.70;99.90;;;;;;5092220;28;20963;-72
2021/05/02 06:19:33;;;;;;;58.35;3.55;;;7.80;99.90;;;;;;5092215;28;20594;-72
2021/05/02 06:22:00;;;;;;;61.27;7.00;;;7.80;99.90;;;;;;5091783;28;20266;-72
2021/05/02 06:24:26;;;;;;;58.27;3.90;;;8.00;99.90;;;;;;5091832;28;20453;-72
2021/05/02 06:26:52;;;;;;;60.10;4.50;;;8.10;99.90;;;;;;5091983;28;20456;-72
2021/05/02 06:29:19;;;;;;;60.45;4.07;;;8.30;99.90;;;;;;5092397;28;20546;-72
2021/05/02 06:31:45;;;;;;;58.57;3.40;;;8.40;99.90;;;;;;5091955;28;20610;-72
2021/05/02 06:34:12;;;;;;;59.10;4.80;;;8.40;99.90;;;;;;5091702;28;20528;-71
2021/05/02 06:36:40;;;;;;;58.37;4.27;;;8.40;99.90;;;;;;5092262;28;20454;-71
2021/05/02 06:39:07;;;;;;;58.47;3.40;;;8.50;99.90;;;;;;5091740;28;20461;-71
2021/05/02 06:41:33;;;;;;;58.63;3.60;;;8.50;99.90;;;;;;5092054;28;20464;-70
2021/05/02 06:44:01;;;;;;;59.47;5.10;;;8.40;99.90;;;;;;5091403;28;20545;-70
2021/05/02 06:46:28;;;;;;;60.27;4.50;;;8.30;99.90;;;;;;5091985;28;20548;-70
2021/05/02 06:48:55;;;;;;;59.75;4.85;;;8.20;99.90;;;;;;5091693;28;20447;-70
2021/05/02 06:51:24;;;;;;;61.35;4.97;;;8.20;99.90;;;;;;5091533;28;20238;-70
2021/05/02 06:53:50;;;;;;;59.63;4.75;;;8.20;99.90;;;;;;5091400;28;20303;-69
2021/05/02 06:56:16;;;;;;;58.70;4.13;;;8.20;99.90;;;;;;5091981;28;20800;-69
2021/05/02 06:58:43;;;;;;;58.00;3.73;;;8.20;99.90;;;;;;5091889;28;20444;-69
2021/05/02 07:01:09;;;;;;;59.70;4.32;;;8.20;99.90;;;;;;5091825;28;20469;-69
2021/05/02 07:03:36;;;;;;;60.63;5.63;;;8.30;99.90;;;;;;5091513;28;20249;-69
2021/05/02 07:06:03;;;;;;;60.20;4.77;;;8.30;99.90;;;;;;5091468;28;20540;-69
2021/05/02 07:08:30;;;;;;;61.10;3.97;;;8.40;99.90;;;;;;5091863;28;20852;-69
2021/05/02 07:10:57;;;;;;;60.10;5.27;;;8.70;99.90;;;;;;5091984;28;20659;-69
2021/05/02 07:13:23;;;;;;;58.50;3.57;;;8.80;99.90;;;;;;5091519;28;20447;-69
2021/05/02 07:15:50;;;;;;;59.17;4.30;;;8.80;99.90;;;;;;5091297;28;20448;-69
2021/05/02 07:18:16;;;;;;;58.30;4.13;;;8.80;99.90;;;;;;5091394;28;20450;-69
2021/05/02 07:20:43;;;;;;;59.20;4.20;;;8.80;99.90;;;;;;5091532;28;20499;-69
2021/05/02 07:23:09;;;;;;;57.80;2.80;;;8.70;99.90;;;;;;5091278;28;20520;-69
2021/05/02 07:25:37;;;;;;;59.40;3.30;;;8.80;99.90;;;;;;5091132;28;21060;-69
2021/05/02 07:28:04;;;;;;;57.87;3.00;;;8.80;99.90;;;;;;5091306;28;21031;-68
2021/05/02 07:30:30;;;;;;;57.80;3.10;;;8.80;99.90;;;;;;5091349;28;20553;-69
2021/05/02 07:32:57;;;;;;;59.50;3.50;;;8.70;99.90;;;;;;5091159;28;20481;-69
2021/05/02 07:35:23;;;;;;;58.70;3.57;;;8.80;99.90;;;;;;5091100;28;20930;-69
2021/05/02 07:37:50;;;;;;;59.47;4.40;;;8.80;99.90;;;;;;5092055;28;20474;-68
2021/05/02 07:40:16;;;;;;;58.40;3.37;;;9.00;99.90;;;;;;5095359;28;20838;-69
2021/05/02 07:42:43;;;;;;;58.20;3.60;;;9.00;99.90;;;;;;5094962;28;20976;-69
2021/05/02 07:45:10;;;;;;;58.27;3.00;;;9.10;99.90;;;;;;5095062;28;20535;-69
2021/05/02 07:47:36;;;;;;;59.60;3.40;;;9.30;99.90;;;;;;5095161;28;21012;-69
2021/05/02 07:50:03;;;;;;;57.23;2.60;;;9.50;99.90;;;;;;5094910;28;20472;-69
2021/05/02 07:52:29;;;;;;;57.97;3.43;;;9.50;99.90;;;;;;5094546;28;20611;-69
2021/05/02 07:54:56;;;;;;;58.30;4.20;;;9.60;99.90;;;;;;5094996;28;20502;-69
2021/05/02 07:57:23;;;;;;;58.40;3.77;;;9.70;99.90;;;;;;5095041;28;21017;-69
2021/05/02 07:59:50;;;;;;;59.87;4.80;;;9.80;99.90;;;;;;5094861;28;20468;-69
2021/05/02 08:02:18;;;;;;;58.07;3.33;;;9.90;99.90;;;;;;5094344;28;20477;-69
2021/05/02 08:04:44;;;;;;;58.43;3.73;;;10.00;99.90;;;;;;5094864;28;20822;-69
2021/05/02 08:07:11;;;;;;;60.00;4.90;;;10.10;99.90;;;;;;5095016;28;20565;-69
2021/05/02 08:09:38;;;;;;;57.90;3.33;;;10.40;99.90;;;;;;5094687;28;20594;-69
2021/05/02 08:12:07;;;;;;;58.63;3.73;;;10.60;99.90;;;;;;5094216;28;20577;-69
2021/05/02 08:14:34;;;;;;;59.17;4.43;;;10.60;99.90;;;;;;5094426;28;20447;-68
2021/05/02 08:17:01;;;;;;;57.97;3.60;;;10.70;99.90;;;;;;5094527;28;20474;-69
2021/05/02 08:19:28;;;;;;;58.37;3.57;;;10.70;99.90;;;;;;5093681;28;20950;-68
2021/05/02 08:21:54;;;;;;;59.27;5.13;;;10.70;99.90;;;;;;5093431;28;20450;-68
2021/05/02 08:24:21;;;;;;;58.90;4.40;;;10.60;99.90;;;;;;5094382;28;20531;-68
2021/05/02 08:26:47;;;;;;;60.67;4.93;;;10.50;99.90;;;;;;5094358;28;20449;-68
2021/05/02 08:29:13;;;;;;;58.07;3.60;;;10.50;97.60;;;;;;5094343;28;20450;-69
2021/05/02 08:31:40;;;;;;;61.10;4.07;;;10.50;95.40;;;;;;5094069;28;20538;-69
2021/05/02 08:34:07;;;;;;;59.27;4.63;;;10.60;82.80;;;;;;5094323;28;20924;-68
2021/05/02 08:36:34;;;;;;;58.60;4.47;;;10.60;90.30;;;;;;5094373;28;20524;-68
2021/05/02 08:39:00;;;;;;;58.33;3.60;;;10.40;89.90;;;;;;5094059;28;21014;-68
2021/05/02 08:41:27;;;;;;;59.33;4.60;;;10.30;92.40;;;;;;5094245;28;20462;-68
2021/05/02 08:43:56;;;;;;;58.73;3.40;;;10.40;96.10;;;;;;5093686;28;20441;-68
2021/05/02 08:46:23;;;;;;;59.23;4.13;;;10.50;94.90;;;;;;5093849;28;20446;-68
2021/05/02 08:48:49;;;;;;;59.40;3.47;;;10.70;92.60;;;;;;5093724;28;20544;-68
2021/05/02 08:51:17;;;;;;;58.17;4.27;;;10.80;91.60;;;;;;5093797;28;20560;-68
2021/05/02 08:53:44;;;;;;;57.80;3.00;;;11.00;92.90;;;;;;5093468;28;20876;-67
2021/05/02 08:56:10;;;;;;;60.77;4.93;;;11.20;89.40;;;;;;5093650;28;20529;-68
2021/05/02 08:58:37;;;;;;;59.10;4.27;;;11.20;89.00;;;;;;5093698;28;20529;-68
2021/05/02 09:01:04;;;;;;;59.53;4.37;;;11.30;87.90;;;;;;5093834;28;20506;-68
2021/05/02 09:03:42;;;;;;;58.17;3.20;;;11.30;80.10;;;;;;5093191;28;20537;-68
2021/05/02 09:06:18;;;;;;;59.37;4.10;;;11.10;85.60;;;;;;5093461;28;20452;-68
2021/05/02 09:08:45;;;;;;;58.33;3.67;;;11.10;88.30;;;;;;5093606;28;20796;-67
2021/05/02 09:11:13;;;;;;;61.07;4.97;;;11.00;84.90;;;;;;5093348;28;20470;-67
2021/05/02 09:13:47;;;;;;;59.00;3.23;;;11.00;91.70;;;;;;5093118;28;20533;-68
2021/05/02 09:16:14;;;;;;;59.80;4.33;;;11.20;90.80;;;;;;5089442;28;20507;-68
2021/05/02 09:18:43;;;;;;;58.23;3.23;;;11.60;85.90;;;;;;5072927;28;20443;-68
2021/05/02 09:21:15;;;;;;;60.30;4.00;;;11.90;82.60;;;;;;5072694;28;20812;-67
2021/05/02 09:23:44;;;;;;;58.10;3.23;;;12.10;85.00;;;;;;5072193;28;20478;-67
2021/05/02 09:26:21;;;;;;;58.57;3.87;;;12.40;85.80;;;;;;5090078;28;20553;-69
2021/05/02 09:28:49;;;;;;;59.93;5.20;;;12.30;72.90;;;;;;5092796;28;20934;-68
2021/05/02 09:31:17;;;;;;;59.00;3.50;;;12.10;76.10;;;;;;5092761;28;20846;-68
2021/05/02 09:33:45;;;;;;;58.87;4.20;;;11.90;74.00;;;;;;5092360;28;21022;-67
2021/05/02 09:36:12;;;;;;;61.40;5.80;;;11.80;76.20;;;;;;5092664;28;20506;-67
2021/05/02 09:38:40;;;;;;;58.43;3.40;;;11.90;88.40;;;;;;5092668;28;20953;-68
2021/05/02 09:41:08;;;;;;;58.17;4.10;;;12.30;77.70;;;;;;5092874;28;20541;-67
2021/05/02 09:43:40;;;;;;;59.07;3.80;;;12.50;79.60;;;;;;5091678;28;20450;-68
2021/05/02 09:46:25;;;;;;;59.27;5.07;;;12.40;73.50;;;;;;5092635;28;20472;-67
2021/05/02 09:49:00;;;;;;;59.10;4.33;;;12.40;76.10;;;;;;5092466;28;20457;-69
2021/05/02 09:51:28;;;;;;;58.20;3.70;;;12.50;72.60;;;;;;5092405;28;20609;-68
2021/05/02 09:54:06;;;;;;;58.20;3.40;;;12.60;72.60;;;;;;5091666;28;20443;-67
2021/05/02 09:56:36;;;;;;;60.93;4.53;;;12.70;75.90;;;;;;5092302;28;20532;-67
2021/05/02 09:59:03;;;;;;;60.80;5.50;;;12.80;70.70;;;;;;5092285;28;20592;-68
2021/05/02 10:01:30;;;;;;;59.77;4.50;;;12.80;75.10;;;;;;5092037;28;20603;-67
2021/05/02 10:03:59;;;;;;;60.30;5.03;;;12.90;72.40;;;;;;5092118;28;20534;-66
2021/05/02 10:06:31;;;;;;;59.80;5.27;;;12.80;73.50;;;;;;5091066;28;20450;-68
2021/05/02 10:08:58;;;;;;;60.43;4.90;;;13.00;79.00;;;;;;5091198;28;20870;-67
2021/05/02 10:11:25;;;;;;;59.00;4.60;;;13.70;72.40;;;;;;5092232;28;20576;-67
2021/05/02 10:13:53;;;;;;;59.10;3.90;;;14.70;58.60;;;;;;5091585;28;20447;-68
2021/05/02 10:16:19;;;;;;;61.37;4.47;;;15.00;60.70;;;;;;5092507;28;20455;-68
2021/05/02 10:18:46;;;;;;;59.70;5.10;;;14.60;57.40;;;;;;5092514;28;20524;-67
2021/05/02 10:21:12;;;;;;;58.77;3.87;;;14.00;50.60;;;;;;5092410;28;20559;-68
2021/05/02 10:23:39;;;;;;;60.17;4.57;;;13.40;53.10;;;;;;5091419;28;20457;-68
2021/05/02 10:26:06;;;;;;;59.10;4.30;;;12.80;58.10;;;;;;5092046;28;20473;-67
2021/05/02 10:28:34;;;;;;;58.27;3.47;;;12.20;60.30;;;;;;5092513;28;21072;-67
2021/05/02 10:31:04;;;;;;;59.80;5.80;;;11.70;55.10;;;;;;5092079;28;21025;-67
2021/05/02 10:33:32;;;;;;;60.20;6.20;;;11.20;57.40;;;;;;5091553;28;20503;-68
2021/05/02 10:36:03;;;;;;;57.90;3.10;;;10.80;61.00;;;;;;5091961;28;20450;-68
2021/05/02 10:38:46;;;;;;;58.30;4.30;;;10.50;63.30;;;;;;5092057;28;20475;-67
2021/05/02 10:41:28;;;;;;;58.37;3.20;;;10.30;61.40;;;;;;5091756;28;20497;-67
2021/05/02 10:43:56;;;;;;;59.27;4.50;;;10.30;67.30;;;;;;5091384;28;20441;-67
2021/05/02 10:46:46;;;;;;;58.97;3.60;;;10.40;71.30;;;;;;5091761;28;20543;-67
2021/05/02 10:49:53;;;;;;;58.20;4.30;;;10.80;75.60;;;;;;5091799;28;20450;-67
2021/05/02 10:52:44;;;;;;;59.47;3.90;;;12.30;77.70;;;;;;5091435;28;20577;-67
2021/05/02 10:55:14;;;;;;;58.70;4.40;;;14.30;58.20;;;;;;5091508;28;20947;-67
2021/05/02 10:57:40;;;;;;;58.30;4.07;;;15.40;43.80;;;;;;5091815;28;20456;-68
2021/05/02 11:00:10;;;;;;;60.00;5.37;;;15.60;45.20;;;;;;5091529;28;20507;-68
2021/05/02 11:02:42;;;;;;;59.40;5.70;;;15.40;40.20;;;;;;5091435;28;20531;-67
2021/05/02 11:05:11;;;;;;;58.90;4.57;;;15.00;40.90;;;;;;5091484;28;20479;-68
2021/05/02 11:07:40;;;;;;;60.00;4.50;;;15.40;41.10;;;;;;5091809;28;20536;-67
2021/05/02 11:10:09;;;;;;;59.37;4.90;;;16.30;40.60;;;;;;5091767;28;20557;-67
2021/05/02 11:12:36;;;;;;;59.27;5.13;;;17.20;42.80;;;;;;5091778;28;20572;-67
2021/05/02 11:15:39;;;;;;;59.30;4.53;;;18.30;44.10;;;;;;5095710;28;20441;-67
2021/05/02 11:18:22;;;;;;;58.87;4.67;;;19.10;39.90;;;;;;5095491;28;20543;-67
2021/05/02 11:20:49;;;;;;;60.50;4.83;;;20.00;34.30;;;;;;5089814;28;20514;-67
2021/05/02 11:23:19;;;;;;;59.93;4.50;;;20.50;40.20;;;;;;5073947;28;20483;-67
2021/05/02 11:25:52;;;;;;;59.30;4.10;;;20.70;29.80;;;;;;5080546;28;20450;-66
2021/05/02 11:28:34;;;;;;;57.97;3.90;;;20.40;37.00;;;;;;5095107;28;20456;-66
2021/05/02 11:31:01;;;;;;;59.40;4.20;;;19.00;28.80;;;;;;5095428;28;20818;-67
2021/05/02 11:33:28;;;;;;;59.07;4.17;;;17.60;38.10;;;;;;5094830;28;20486;-66
2021/05/02 11:35:56;;;;;;;59.17;4.27;;;16.30;34.90;;;;;;5094980;28;20544;-66
2021/05/02 11:38:40;;;;;;;59.37;4.17;;;15.20;39.00;;;;;;5095001;28;20486;-67
2021/05/02 11:41:09;;;;;;;59.00;3.70;;;14.00;45.30;;;;;;5094089;28;20530;-67
2021/05/02 11:43:39;;;;;;;57.97;3.13;;;13.20;44.50;;;;;;5094881;28;20458;-67
2021/05/02 11:46:15;;;;;;;60.33;4.50;;;12.60;43.20;;;;;;5094522;28;20449;-67
2021/05/02 11:48:44;;;;;;;58.00;3.50;;;12.00;50.00;;;;;;5094877;28;20487;-66
2021/05/02 11:51:16;;;;;;;58.33;4.07;;;11.50;53.50;;;;;;5094908;28;20919;-67
2021/05/02 11:53:46;;;;;;;58.93;4.40;;;11.20;58.00;;;;;;5094323;28;20564;-65
2021/05/02 11:56:15;;;;;;;59.93;3.87;;;11.20;62.00;;;;;;5094808;28;20549;-66
2021/05/02 11:58:42;;;;;;;58.40;4.07;;;11.30;62.70;;;;;;5094905;28;20500;-66
2021/05/02 12:01:30;;;;;;;58.60;4.17;;;12.30;64.50;;;;;;5094801;28;20546;-67
2021/05/02 12:04:04;;;;;;;58.90;4.30;;;14.40;54.40;;;;;;5089581;28;20547;-68
2021/05/02 12:06:32;;;;;;;58.13;3.37;;;15.90;58.30;;;;;;5094533;28;21020;-66
2021/05/02 12:09:00;;;;;;;58.93;3.30;;;17.40;43.00;;;;;;5094452;28;20457;-65
2021/05/02 12:11:28;;;;;;;59.20;4.20;;;18.40;41.20;;;;;;5094419;28;20529;-66
2021/05/02 12:13:56;;;;;;;58.00;3.60;;;19.20;43.00;;;;;;5093894;28;20452;-66
2021/05/02 12:16:24;;;;;;;58.63;3.57;;;20.10;39.70;;;;;;5094311;28;20545;-67
2021/05/02 12:19:05;;;;;;;57.87;3.27;;;20.70;32.50;;;;;;5094234;28;20513;-67
2021/05/02 12:21:34;;;;;;;59.10;3.70;;;21.60;34.50;;;;;;5094511;28;20501;-67
2021/05/02 12:24:12;;;;;;;62.20;4.20;;;22.60;31.30;;;;;;5082834;28;20981;-67
2021/05/02 12:26:43;;;;;;;57.60;2.90;;;23.20;33.00;;;;;;5074080;28;20486;-67
2021/05/02 12:29:12;;;;;;;58.10;3.40;;;23.70;29.60;;;;;;5076267;28;20486;-67
2021/05/02 12:31:39;;;;;;;59.03;3.40;;;23.80;29.30;;;;;;5093966;28;20562;-67
2021/05/02 12:34:07;;;;;;;57.73;3.10;;;22.90;30.00;;;;;;5093531;28;20457;-66
2021/05/02 12:36:34;;;;;;;58.60;3.50;;;22.10;31.10;;;;;;5092858;28;20442;-68
2021/05/02 12:39:04;;;;;;;58.17;3.73;;;21.90;31.80;;;;;;5093565;28;20560;-67
2021/05/02 12:41:30;;;;;;;59.90;4.40;;;21.60;30.00;;;;;;5093822;28;21059;-66
2021/05/02 12:44:11;;;;;;;58.60;3.90;;;20.80;32.70;;;;;;5093320;28;20461;-67
2021/05/02 12:46:40;;;;;;;59.10;3.97;;;19.50;34.70;;;;;;5093651;28;20446;-67
2021/05/02 12:49:25;;;;;;;59.27;3.67;;;18.30;31.80;;;;;;5093856;28;20448;-67
2021/05/02 12:51:54;;;;;;;58.60;3.67;;;17.10;28.90;;;;;;5093178;28;20489;-66
2021/05/02 12:54:25;;;;;;;59.07;4.13;;;16.40;31.70;;;;;;5093339;28;20523;-66